Terminal Aerodrome Forecast
Issued by NWS La Crosse, WI

Home | Current Version | Previous Version | Text Only | Print | Product List | Glossary On
Versions: 1 2 3 4 5 6 7 8 9 10 11 12 13 14 15 16 17 18 19 20 21 22
000
FTUS43 KARX 022320
TAFLSE
TAF
KLSE 022320Z 0300/0324 16008KT P6SM SCT250
     FM031400 17010KT P6SM SCT040 BKN250
     FM031800 17010KT P6SM BKN040 OVC250=

USA.gov is the U.S. government's official web portal to all federal, state and local government web resources and services.